Time;durP1;ratioP1;P1;durP2;ratioP2;P2;SDS_P1;SDS_P2;PMS_P1;PMS_P2;Temp;Humidity;BMP_temperature;BMP_pressure;BME280_temperature;BME280_humidity;BME280_pressure;Samples;Min_cycle;Max_cycle;Signal;HPM_P1;HPM_P2
2021/06/29 00:02:07;;;;;;;;;;;14.00;95.50;;;;;;4997056;28;19924;-72
2021/06/29 00:04:33;;;;;;;;;;;14.00;95.40;;;;;;4997322;28;19931;-71
2021/06/29 00:06:58;;;;;;;;;;;14.00;95.30;;;;;;4997051;28;20303;-71
2021/06/29 00:09:24;;;;;;;;;;;13.90;95.50;;;;;;4997148;28;20376;-71
2021/06/29 00:11:49;;;;;;;;;;;13.80;95.50;;;;;;4997308;28;20005;-71
2021/06/29 00:14:15;;;;;;;;;;;13.80;95.90;;;;;;4996823;28;19931;-71
2021/06/29 00:16:40;;;;;;;;;;;13.80;95.80;;;;;;4997104;28;19955;-71
2021/06/29 00:19:06;;;;;;;;;;;13.90;95.80;;;;;;4995726;28;19928;-71
2021/06/29 00:21:31;;;;;;;;;;;13.90;95.50;;;;;;4996963;28;19924;-71
2021/06/29 00:23:57;;;;;;;;;;;13.90;95.50;;;;;;4995960;28;19922;-71
2021/06/29 00:26:22;;;;;;;;;;;13.90;95.50;;;;;;4996633;28;19966;-71
2021/06/29 00:28:48;;;;;;;;;;;13.80;95.60;;;;;;4997056;28;19931;-71
2021/06/29 00:31:14;;;;;;;;;;;13.80;95.70;;;;;;4996561;28;19968;-72
2021/06/29 00:33:40;;;;;;;;;;;13.80;95.60;;;;;;4995596;28;20405;-71
2021/06/29 00:36:05;;;;;;;;;;;13.90;95.80;;;;;;4996644;28;19943;-71
2021/06/29 00:38:31;;;;;;;;;;;13.90;95.30;;;;;;4996486;28;20014;-71
2021/06/29 00:40:57;;;;;;;;;;;13.80;95.50;;;;;;4996635;28;19930;-71
2021/06/29 00:43:22;;;;;;;;;;;13.80;95.50;;;;;;4996380;28;20352;-71
2021/06/29 00:45:48;;;;;;;;;;;13.80;95.50;;;;;;4996590;28;20374;-71
2021/06/29 00:48:14;;;;;;;;;;;13.80;95.60;;;;;;5003969;28;20017;-71
2021/06/29 00:50:40;;;;;;;;;;;13.70;95.60;;;;;;5014573;28;19974;-71
2021/06/29 00:53:05;;;;;;;;;;;13.70;95.60;;;;;;5014725;28;19943;-72
2021/06/29 00:55:31;;;;;;;;;;;13.60;95.60;;;;;;5014391;28;19946;-71
2021/06/29 00:57:57;;;;;;;;;;;13.70;95.60;;;;;;5015844;28;19926;-71
2021/06/29 01:00:23;;;;;;;;;;;13.70;95.70;;;;;;5014648;28;19927;-71
2021/06/29 01:02:48;;;;;;;;;;;13.70;95.60;;;;;;5015446;28;19991;-71
2021/06/29 01:05:14;;;;;;;;;;;13.70;95.50;;;;;;5015702;28;20395;-71
2021/06/29 01:07:40;;;;;;;;;;;13.80;95.60;;;;;;5015414;28;19968;-71
2021/06/29 01:10:06;;;;;;;;;;;13.80;95.50;;;;;;5014381;28;20305;-71
2021/06/29 01:12:31;;;;;;;;;;;13.80;95.70;;;;;;5014352;28;19924;-71
2021/06/29 01:14:57;;;;;;;;;;;13.80;95.20;;;;;;5015565;28;20406;-71
2021/06/29 01:17:24;;;;;;;;;;;13.80;95.30;;;;;;5015409;28;19980;-71
2021/06/29 01:19:52;;;;;;;;;;;13.80;95.10;;;;;;5015212;28;20021;-71
2021/06/29 01:22:18;;;;;;;;;;;13.70;95.30;;;;;;5014176;28;19928;-71
2021/06/29 01:24:49;;;;;;;;;;;13.70;95.50;;;;;;5015399;28;20399;-71
2021/06/29 01:27:29;;;;;;;;;;;13.70;95.60;;;;;;5015370;28;19924;-71
2021/06/29 01:32:20;;;;;;;;;;;13.70;95.50;;;;;;5015500;28;19969;-71
2021/06/29 01:34:45;;;;;;;;;;;13.80;95.60;;;;;;5015190;28;19993;-71
2021/06/29 01:37:11;;;;;;;;;;;13.80;95.50;;;;;;5014973;28;19949;-71
2021/06/29 01:39:36;;;;;;;;;;;13.90;95.60;;;;;;5014150;28;20337;-71
2021/06/29 01:42:02;;;;;;;;;;;13.90;95.50;;;;;;5015016;28;19932;-71
2021/06/29 01:44:35;;;;;;;;;;;13.90;95.40;;;;;;5014964;28;19921;-71
2021/06/29 01:47:04;;;;;;;;;;;13.90;95.40;;;;;;5015086;28;20343;-71
2021/06/29 01:49:29;;;;;;;;;;;13.90;95.30;;;;;;4996660;28;20022;-71
2021/06/29 01:51:55;;;;;;;;;;;13.90;95.40;;;;;;4995365;28;19953;-71
2021/06/29 01:54:21;;;;;;;;;;;13.90;95.30;;;;;;4995070;28;19937;-71
2021/06/29 01:56:47;;;;;;;;;;;13.90;95.40;;;;;;4994961;28;20502;-71
2021/06/29 01:59:15;;;;;;;;;;;13.90;95.40;;;;;;4995342;28;19928;-71
2021/06/29 02:01:41;;;;;;;;;;;13.90;95.30;;;;;;4993816;28;19928;-71
2021/06/29 02:04:07;;;;;;;;;;;13.90;95.40;;;;;;4995026;28;20028;-71
2021/06/29 02:06:32;;;;;;;;;;;13.90;95.50;;;;;;4994972;28;20022;-71
2021/06/29 02:08:58;;;;;;;;;;;13.90;95.40;;;;;;4994929;28;19930;-71
2021/06/29 02:11:23;;;;;;;;;;;13.90;95.40;;;;;;4995100;28;19926;-71
2021/06/29 02:13:49;;;;;;;;;;;14.00;95.60;;;;;;4993958;28;19924;-71
2021/06/29 02:16:14;;;;;;;;;;;14.00;95.20;;;;;;4994742;28;19984;-71
2021/06/29 02:18:40;;;;;;;;;;;13.90;95.30;;;;;;4994666;28;19974;-71
2021/06/29 02:21:06;;;;;;;;;;;13.90;95.40;;;;;;4994801;28;19947;-71
2021/06/29 02:23:31;;;;;;;;;;;13.90;95.60;;;;;;4993612;28;19924;-71
2021/06/29 02:25:57;;;;;;;;;;;13.90;95.40;;;;;;4994582;28;19930;-71
2021/06/29 02:28:22;;;;;;;;;;;13.90;95.50;;;;;;4994650;28;20393;-71
2021/06/29 02:30:48;;;;;;;;;;;13.90;95.50;;;;;;4993326;28;19981;-71
2021/06/29 02:33:13;;;;;;;;;;;13.90;95.40;;;;;;4994741;28;20342;-71
2021/06/29 02:35:39;;;;;;;;;;;14.00;95.40;;;;;;4994489;28;19953;-71
2021/06/29 02:38:05;;;;;;;;;;;13.90;95.40;;;;;;4994491;28;19932;-71
2021/06/29 02:40:30;;;;;;;;;;;14.00;95.40;;;;;;4994579;28;19926;-71
2021/06/29 02:42:56;;;;;;;;;;;13.90;95.40;;;;;;4994329;28;20275;-71
2021/06/29 02:45:22;;;;;;;;;;;13.80;95.50;;;;;;4993207;28;19949;-71
2021/06/29 02:47:48;;;;;;;;;;;13.90;95.50;;;;;;4998582;28;19920;-71
2021/06/29 02:50:14;;;;;;;;;;;13.80;95.40;;;;;;5013815;28;19924;-71
2021/06/29 02:52:40;;;;;;;;;;;13.80;95.50;;;;;;5014009;28;19945;-71
2021/06/29 02:55:09;;;;;;;;;;;13.80;95.60;;;;;;5013687;28;19936;-71
2021/06/29 02:57:34;;;;;;;;;;;13.80;95.60;;;;;;5013438;28;19957;-71
2021/06/29 03:00:00;;;;;;;;;;;13.70;95.40;;;;;;5012764;28;20274;-71
2021/06/29 03:02:25;;;;;;;;;;;13.60;95.60;;;;;;5012372;28;20373;-72
2021/06/29 03:04:51;;;;;;;;;;;13.60;95.90;;;;;;5013865;28;19975;-71
2021/06/29 03:07:16;;;;;;;;;;;13.70;95.90;;;;;;5013661;28;19924;-71
2021/06/29 03:09:42;;;;;;;;;;;13.70;95.80;;;;;;5013874;28;19951;-71
2021/06/29 03:12:08;;;;;;;;;;;13.80;95.70;;;;;;5012709;28;20019;-71
2021/06/29 03:14:37;;;;;;;;;;;13.80;95.70;;;;;;5013475;28;20392;-71
2021/06/29 03:17:03;;;;;;;;;;;13.90;95.60;;;;;;5013679;28;19951;-71
2021/06/29 03:19:29;;;;;;;;;;;13.90;95.60;;;;;;5013481;28;19924;-71
2021/06/29 03:21:54;;;;;;;;;;;13.90;95.60;;;;;;5013852;28;19989;-71
2021/06/29 03:24:20;;;;;;;;;;;13.80;95.50;;;;;;5014432;28;20372;-71
2021/06/29 03:26:45;;;;;;;;;;;13.80;95.80;;;;;;5016007;28;19926;-71
2021/06/29 03:29:11;;;;;;;;;;;13.70;95.60;;;;;;5016445;28;19923;-71
2021/06/29 03:31:36;;;;;;;;;;;13.70;95.70;;;;;;5017316;28;20024;-71
2021/06/29 03:34:02;;;;;;;;;;;13.80;95.70;;;;;;5017477;28;20066;-71
2021/06/29 03:36:29;;;;;;;;;;;13.80;95.60;;;;;;5017373;28;19949;-71
2021/06/29 03:38:55;;;;;;;;;;;13.80;95.60;;;;;;5017045;28;19930;-71
2021/06/29 03:41:20;;;;;;;;;;;13.80;96.00;;;;;;5016279;28;19922;-71
2021/06/29 03:43:46;;;;;;;;;;;13.80;95.90;;;;;;5017071;28;19974;-71
2021/06/29 03:46:11;;;;;;;;;;;13.80;95.80;;;;;;5017191;28;20056;-71
2021/06/29 03:48:37;;;;;;;;;;;13.90;95.70;;;;;;5006328;28;19924;-71
2021/06/29 03:51:02;;;;;;;;;;;13.90;95.60;;;;;;4997482;28;19927;-71
2021/06/29 03:53:28;;;;;;;;;;;13.90;95.70;;;;;;4997297;28;19947;-71
2021/06/29 03:55:53;;;;;;;;;;;13.80;95.70;;;;;;4996981;28;20012;-71
2021/06/29 03:58:19;;;;;;;;;;;13.80;95.70;;;;;;4997492;28;19920;-71
2021/06/29 04:00:44;;;;;;;;;;;13.90;95.80;;;;;;4997361;28;19975;-71
2021/06/29 04:03:10;;;;;;;;;;;13.80;95.80;;;;;;4997294;28;20030;-71
2021/06/29 04:05:35;;;;;;;;;;;13.80;95.70;;;;;;4997283;28;19924;-71
2021/06/29 04:08:01;;;;;;;;;;;13.80;95.70;;;;;;4996962;28;20399;-71
2021/06/29 04:10:26;;;;;;;;;;;13.80;95.90;;;;;;4997233;28;19926;-71
2021/06/29 04:12:52;;;;;;;;;;;13.80;95.90;;;;;;4997129;28;19936;-71
2021/06/29 04:15:17;;;;;;;;;;;13.80;95.70;;;;;;4997199;28;19925;-71
2021/06/29 04:17:43;;;;;;;;;;;13.80;95.80;;;;;;4997192;28;19937;-71
2021/06/29 04:20:09;;;;;;;;;;;13.80;95.90;;;;;;4996710;28;19921;-71
2021/06/29 04:22:35;;;;;;;;;;;13.80;95.90;;;;;;4997219;28;19925;-71
2021/06/29 04:25:00;;;;;;;;;;;13.80;96.00;;;;;;4996904;28;19923;-71
2021/06/29 04:27:26;;;;;;;;;;;13.90;95.90;;;;;;4996883;28;20303;-71
2021/06/29 04:29:52;;;;;;;;;;;13.80;95.90;;;;;;4996909;28;19958;-70
2021/06/29 04:32:18;;;;;;;;;;;13.90;96.00;;;;;;4996794;28;19974;-71
2021/06/29 04:34:43;;;;;;;;;;;13.90;95.90;;;;;;4996882;28;19920;-71
2021/06/29 04:37:09;;;;;;;;;;;13.90;95.80;;;;;;4995642;28;20355;-71
2021/06/29 04:39:34;;;;;;;;;;;13.80;96.00;;;;;;4996719;28;19925;-71
2021/06/29 04:42:00;;;;;;;;;;;13.90;95.90;;;;;;4996566;28;19920;-71
2021/06/29 04:44:25;;;;;;;;;;;13.90;95.90;;;;;;4996586;28;20292;-71
2021/06/29 04:46:51;;;;;;;;;;;13.80;95.90;;;;;;4996544;28;19920;-71
2021/06/29 04:49:19;;;;;;;;;;;13.90;95.90;;;;;;5011054;28;19928;-71
2021/06/29 04:51:44;;;;;;;;;;;13.90;95.90;;;;;;5014922;28;19920;-71
2021/06/29 04:54:10;;;;;;;;;;;13.90;95.90;;;;;;5015856;28;20435;-71
2021/06/29 04:56:35;;;;;;;;;;;13.90;95.90;;;;;;5015701;28;19957;-71
2021/06/29 04:59:02;;;;;;;;;;;14.00;95.80;;;;;;5015823;28;19924;-71
2021/06/29 05:01:29;;;;;;;;;;;14.10;95.80;;;;;;5015732;28;19924;-71
2021/06/29 05:03:55;;;;;;;;;;;14.00;95.80;;;;;;5015815;28;19950;-71
2021/06/29 05:06:20;;;;;;;;;;;14.10;95.80;;;;;;5014545;28;19920;-71
2021/06/29 05:08:46;;;;;;;;;;;14.10;95.70;;;;;;5015750;28;19924;-71
2021/06/29 05:11:11;;;;;;;;;;;14.20;95.70;;;;;;5015655;28;19929;-71
2021/06/29 05:13:37;;;;;;;;;;;14.20;95.70;;;;;;5015489;28;20037;-71
2021/06/29 05:16:02;;;;;;;;;;;14.20;95.70;;;;;;5015472;28;19951;-71
2021/06/29 05:18:28;;;;;;;;;;;14.20;95.70;;;;;;5014454;28;19923;-71
2021/06/29 05:20:57;;;;;;;;;;;14.20;95.70;;;;;;5014376;28;19922;-71
2021/06/29 05:23:22;;;;;;;;;;;14.20;95.90;;;;;;5015426;28;19925;-71
2021/06/29 05:25:48;;;;;;;;;;;14.20;95.80;;;;;;5015320;28;19947;-71
2021/06/29 05:28:13;;;;;;;;;;;14.20;95.90;;;;;;5015358;28;20015;-71
2021/06/29 05:30:39;;;;;;;;;;;14.20;95.90;;;;;;5015172;28;19961;-71
2021/06/29 05:33:04;;;;;;;;;;;14.20;95.80;;;;;;5015391;28;19924;-71
2021/06/29 05:35:30;;;;;;;;;;;14.20;95.90;;;;;;5015125;28;19928;-71
2021/06/29 05:37:55;;;;;;;;;;;14.30;95.90;;;;;;5015153;28;19930;-71
2021/06/29 05:40:21;;;;;;;;;;;14.40;95.90;;;;;;5015085;28;19924;-71
2021/06/29 05:42:46;;;;;;;;;;;14.40;95.80;;;;;;5014874;28;19935;-71
2021/06/29 05:45:14;;;;;;;;;;;14.40;95.80;;;;;;5015135;28;20038;-71
2021/06/29 05:47:40;;;;;;;;;;;14.40;95.80;;;;;;5011824;28;19925;-71
2021/06/29 05:50:06;;;;;;;;;;;14.40;95.80;;;;;;4994657;28;19928;-71
2021/06/29 05:52:31;;;;;;;;;;;14.50;95.80;;;;;;4995410;28;19930;-71
2021/06/29 05:54:57;;;;;;;;;;;14.50;95.70;;;;;;4995012;28;20080;-71
2021/06/29 05:57:23;;;;;;;;;;;14.50;95.60;;;;;;4994804;28;20005;-71
2021/06/29 05:59:48;;;;;;;;;;;14.60;95.60;;;;;;4995170;28;19922;-71
2021/06/29 06:02:14;;;;;;;;;;;14.60;95.60;;;;;;4993819;28;20009;-71
2021/06/29 06:04:39;;;;;;;;;;;14.60;95.70;;;;;;4995211;28;20428;-71
2021/06/29 06:07:05;;;;;;;;;;;14.70;95.50;;;;;;4994880;28;19929;-71
2021/06/29 06:09:31;;;;;;;;;;;14.80;95.40;;;;;;4995136;28;19946;-71
2021/06/29 06:11:56;;;;;;;;;;;14.80;95.30;;;;;;4993814;28;20369;-71
2021/06/29 06:14:22;;;;;;;;;;;14.80;95.30;;;;;;4993600;28;19975;-71
2021/06/29 06:16:47;;;;;;;;;;;14.90;95.30;;;;;;4994787;28;19947;-71
2021/06/29 06:19:13;;;;;;;;;;;14.90;95.30;;;;;;4994621;28;19925;-71
2021/06/29 06:21:38;;;;;;;;;;;15.00;95.30;;;;;;4993691;28;19923;-71
2021/06/29 06:24:05;;;;;;;;;;;15.00;95.30;;;;;;4994783;28;19930;-71
2021/06/29 06:26:31;;;;;;;;;;;15.00;95.30;;;;;;4994704;28;19924;-71
2021/06/29 06:28:56;;;;;;;;;;;15.10;95.20;;;;;;4994705;28;19926;-71
2021/06/29 06:31:22;;;;;;;;;;;15.10;95.20;;;;;;4994437;28;19949;-71
2021/06/29 06:33:47;;;;;;;;;;;15.10;95.20;;;;;;4994599;28;19927;-71
2021/06/29 06:36:13;;;;;;;;;;;15.10;95.40;;;;;;4994526;28;20001;-71
2021/06/29 06:38:38;;;;;;;;;;;15.10;95.30;;;;;;4994322;28;20353;-71
2021/06/29 06:41:04;;;;;;;;;;;15.10;95.20;;;;;;4994549;28;19932;-71
2021/06/29 06:43:29;;;;;;;;;;;15.10;95.10;;;;;;4994293;28;19922;-71
2021/06/29 06:45:55;;;;;;;;;;;15.10;95.10;;;;;;4994862;28;19931;-71
2021/06/29 06:48:20;;;;;;;;;;;15.20;95.20;;;;;;5002819;28;20010;-71
2021/06/29 06:50:46;;;;;;;;;;;15.30;95.10;;;;;;5013816;28;19928;-71
2021/06/29 06:53:13;;;;;;;;;;;15.30;95.10;;;;;;5013897;28;19990;-71
2021/06/29 06:55:39;;;;;;;;;;;15.30;95.10;;;;;;5004025;28;19968;-74
2021/06/29 06:58:05;;;;;;;;;;;15.30;95.00;;;;;;4990804;28;19967;-72
2021/06/29 07:00:30;;;;;;;;;;;15.30;95.10;;;;;;4992797;28;19930;-72
2021/06/29 07:02:56;;;;;;;;;;;15.20;95.00;;;;;;4981915;28;20430;-72
2021/06/29 07:05:22;;;;;;;;;;;15.20;95.30;;;;;;4988505;28;19934;-72
2021/06/29 07:07:47;;;;;;;;;;;15.20;95.00;;;;;;4991126;28;20389;-73
2021/06/29 07:10:13;;;;;;;;;;;15.20;95.10;;;;;;5009082;28;20032;-72
2021/06/29 07:12:38;;;;;;;;;;;15.30;95.20;;;;;;4988789;28;20389;-72
2021/06/29 07:15:04;;;;;;;;;;;15.30;94.80;;;;;;4973277;28;19924;-73
2021/06/29 07:17:30;;;;;;;;;;;15.20;94.90;;;;;;4978176;28;20048;-75
2021/06/29 07:19:55;;;;;;;;;;;15.30;94.80;;;;;;5006791;28;19940;-73
2021/06/29 07:22:21;;;;;;;;;;;15.20;94.70;;;;;;4994087;28;20373;-73
2021/06/29 07:24:46;;;;;;;;;;;15.20;94.30;;;;;;4993617;28;19931;-73
2021/06/29 07:27:12;;;;;;;;;;;15.20;94.30;;;;;;4993827;28;20002;-74
2021/06/29 07:29:37;;;;;;;;;;;15.30;94.30;;;;;;4976131;28;19929;-73
2021/06/29 07:32:04;;;;;;;;;;;15.50;94.10;;;;;;4986176;28;20345;-72
2021/06/29 07:34:29;;;;;;;;;;;15.60;94.00;;;;;;5008856;28;19938;-71
2021/06/29 07:36:55;;;;;;;;;;;15.80;93.80;;;;;;4993018;28;20383;-73
2021/06/29 07:39:21;;;;;;;;;;;16.00;93.70;;;;;;4993651;28;19926;-73
2021/06/29 07:41:47;;;;;;;;;;;16.50;93.50;;;;;;4992809;28;20021;-76
2021/06/29 07:44:12;;;;;;;;;;;17.00;92.50;;;;;;4991896;28;19961;-74
2021/06/29 07:46:38;;;;;;;;;;;17.50;91.30;;;;;;4986011;28;20391;-74
2021/06/29 07:49:03;;;;;;;;;;;17.80;90.60;;;;;;4987068;28;19929;-75
2021/06/29 07:51:29;;;;;;;;;;;17.80;90.80;;;;;;4987743;28;20060;-73
2021/06/29 07:53:55;;;;;;;;;;;17.80;91.10;;;;;;4993083;28;19993;-73
2021/06/29 07:56:20;;;;;;;;;;;17.50;91.70;;;;;;5008490;28;19958;-72
2021/06/29 07:58:46;;;;;;;;;;;17.40;91.80;;;;;;4990793;28;20010;-73
2021/06/29 08:01:12;;;;;;;;;;;17.20;92.00;;;;;;4993728;28;19928;-72
2021/06/29 08:03:38;;;;;;;;;;;17.20;91.70;;;;;;4990701;28;20425;-73
2021/06/29 08:06:03;;;;;;;;;;;17.20;92.00;;;;;;4991848;28;19936;-72
2021/06/29 08:08:29;;;;;;;;;;;17.20;92.00;;;;;;4993685;28;19923;-73
2021/06/29 08:10:56;;;;;;;;;;;17.20;91.80;;;;;;4993063;28;19934;-72
2021/06/29 08:13:21;;;;;;;;;;;17.10;91.90;;;;;;4978705;28;19931;-72
2021/06/29 08:15:47;;;;;;;;;;;17.10;91.70;;;;;;4996752;28;19954;-72
2021/06/29 08:18:13;;;;;;;;;;;17.10;91.90;;;;;;4997048;28;19927;-71
2021/06/29 08:20:38;;;;;;;;;;;17.20;92.50;;;;;;4997079;28;19979;-71
2021/06/29 08:23:04;;;;;;;;;;;17.40;91.70;;;;;;4997011;28;20391;-73
2021/06/29 08:25:29;;;;;;;;;;;17.50;91.50;;;;;;4998192;28;20333;-71
2021/06/29 08:27:55;;;;;;;;;;;17.50;91.90;;;;;;4999232;28;19930;-72
2021/06/29 08:30:21;;;;;;;;;;;17.50;92.10;;;;;;4996790;28;19938;-74
2021/06/29 08:32:46;;;;;;;;;;;17.50;91.90;;;;;;4995926;28;19923;-72
2021/06/29 08:35:12;;;;;;;;;;;17.50;91.10;;;;;;4991123;28;20328;-73
2021/06/29 08:37:38;;;;;;;;;;;17.60;91.20;;;;;;4976588;28;19947;-74
2021/06/29 08:40:04;;;;;;;;;;;17.70;91.00;;;;;;4977306;28;19930;-74
2021/06/29 08:42:33;;;;;;;;;;;17.80;91.50;;;;;;4984114;28;20315;-73
2021/06/29 08:44:59;;;;;;;;;;;17.90;91.20;;;;;;4995817;28;19931;-71
2021/06/29 08:47:25;;;;;;;;;;;18.00;90.50;;;;;;4993606;28;19937;-74
2021/06/29 08:49:50;;;;;;;;;;;18.00;90.60;;;;;;4996293;28;19956;-73
2021/06/29 08:52:16;;;;;;;;;;;18.10;90.30;;;;;;4995830;28;19931;-72
2021/06/29 08:54:42;;;;;;;;;;;18.50;90.00;;;;;;4996274;28;19938;-72
2021/06/29 08:57:07;;;;;;;;;;;20.10;87.90;;;;;;4993756;28;19972;-72
2021/06/29 08:59:33;;;;;;;;;;;21.20;81.90;;;;;;4996328;28;19927;-75
2021/06/29 09:02:02;;;;;;;;;;;22.20;77.60;;;;;;4984250;28;19928;-73
2021/06/29 09:04:43;;;;;;;;;;;23.00;75.70;;;;;;4986691;28;19963;-77
2021/06/29 09:07:18;;;;;;;;;;;23.00;75.20;;;;;;4996014;28;19923;-75
2021/06/29 09:10:02;;;;;;;;;;;22.70;76.90;;;;;;4994494;28;19929;-72
2021/06/29 09:12:41;;;;;;;;;;;23.40;76.00;;;;;;4994603;28;19979;-74
2021/06/29 09:15:22;;;;;;;;;;;23.50;74.10;;;;;;4989204;28;20392;-72
2021/06/29 09:17:48;;;;;;;;;;;23.70;68.70;;;;;;4996097;28;20044;-74
2021/06/29 09:20:13;;;;;;;;;;;23.00;74.00;;;;;;4995234;28;19988;-74
2021/06/29 09:22:39;;;;;;;;;;;22.30;73.70;;;;;;4994699;28;19927;-73
2021/06/29 09:25:04;;;;;;;;;;;22.30;72.70;;;;;;4994534;28;20397;-72
2021/06/29 09:27:40;;;;;;;;;;;22.60;77.00;;;;;;4994534;28;19937;-72
2021/06/29 09:30:09;;;;;;;;;;;23.10;74.60;;;;;;4977192;28;19932;-74
2021/06/29 09:32:34;;;;;;;;;;;23.30;77.10;;;;;;4975019;28;19927;-76
2021/06/29 09:35:04;;;;;;;;;;;24.50;75.80;;;;;;4991434;28;19931;-76
2021/06/29 09:37:36;;;;;;;;;;;24.30;69.60;;;;;;4993749;28;19954;-75
2021/06/29 09:40:11;;;;;;;;;;;23.30;72.00;;;;;;4995470;28;19966;-74
2021/06/29 09:42:36;;;;;;;;;;;22.70;76.40;;;;;;4993541;28;20485;-75
2021/06/29 09:45:02;;;;;;;;;;;22.40;75.80;;;;;;4978887;28;19973;-74
2021/06/29 09:47:29;;;;;;;;;;;22.20;73.10;;;;;;4975721;28;20027;-74
2021/06/29 09:49:56;;;;;;;;;;;22.00;75.60;;;;;;4990743;28;20412;-74
2021/06/29 09:52:32;;;;;;;;;;;22.60;76.10;;;;;;4990839;28;19933;-74
2021/06/29 09:54:58;;;;;;;;;;;22.50;79.70;;;;;;4979652;28;20426;-75
2021/06/29 09:57:24;;;;;;;;;;;22.60;74.10;;;;;;4990949;28;20061;-75
2021/06/29 09:59:49;;;;;;;;;;;22.10;77.10;;;;;;4989976;28;20006;-74
2021/06/29 10:02:16;;;;;;;;;;;21.70;81.20;;;;;;4994081;28;19995;-73
2021/06/29 10:04:43;;;;;;;;;;;21.60;78.60;;;;;;4993900;28;20000;-74
2021/06/29 10:07:18;;;;;;;;;;;22.60;82.10;;;;;;4994247;28;19933;-74
2021/06/29 10:09:43;;;;;;;;;;;23.90;74.30;;;;;;4987455;28;20072;-71
2021/06/29 10:12:09;;;;;;;;;;;23.80;65.70;;;;;;4974513;28;19978;-72
2021/06/29 10:14:35;;;;;;;;;;;23.00;69.50;;;;;;4989237;28;19927;-74
2021/06/29 10:17:00;;;;;;;;;;;22.50;73.50;;;;;;4975533;28;19947;-73
2021/06/29 10:22:10;;;;;;;;;;;21.80;78.20;;;;;;4987362;28;19931;-71
2021/06/29 10:24:36;;;;;;;;;;;21.70;78.00;;;;;;4993695;28;20376;-73
2021/06/29 10:27:03;;;;;;;;;;;21.90;76.60;;;;;;4993877;28;20392;-71
2021/06/29 10:29:29;;;;;;;;;;;23.20;78.40;;;;;;4993916;28;19929;-70
2021/06/29 10:31:58;;;;;;;;;;;25.00;72.90;;;;;;4993538;28;19924;-70
2021/06/29 10:34:25;;;;;;;;;;;26.40;68.50;;;;;;4993455;28;19983;-71
2021/06/29 10:36:51;;;;;;;;;;;27.40;72.50;;;;;;4993447;28;19948;-71
2021/06/29 10:39:18;;;;;;;;;;;27.50;64.50;;;;;;4993666;28;19923;-71
2021/06/29 10:41:48;;;;;;;;;;;28.00;60.10;;;;;;4993633;28;19973;-70
2021/06/29 10:44:14;;;;;;;;;;;27.00;55.80;;;;;;4993959;28;19926;-69
2021/06/29 10:46:41;;;;;;;;;;;25.60;65.80;;;;;;4992250;28;19926;-73
2021/06/29 10:49:27;;;;;;;;;;;24.80;69.10;;;;;;4993484;28;20309;-72
2021/06/29 10:51:52;;;;;;;;;;;25.20;72.60;;;;;;4993431;28;19926;-70
2021/06/29 10:54:37;;;;;;;;;;;26.80;61.10;;;;;;4993522;28;19940;-70
2021/06/29 10:57:11;;;;;;;;;;;27.70;55.00;;;;;;4991678;28;19963;-71
2021/06/29 10:59:37;;;;;;;;;;;28.90;54.30;;;;;;4993449;28;19923;-71
2021/06/29 11:02:03;;;;;;;;;;;30.60;50.10;;;;;;4993362;28;19932;-68
2021/06/29 11:04:46;;;;;;;;;;;32.10;45.30;;;;;;4993512;28;20374;-70
2021/06/29 11:07:27;;;;;;;;;;;33.30;47.50;;;;;;4992791;28;20000;-69
2021/06/29 11:09:54;;;;;;;;;;;34.50;43.90;;;;;;4993710;28;19945;-69
2021/06/29 11:12:23;;;;;;;;;;;34.10;44.40;;;;;;4995611;28;19922;-69
2021/06/29 11:14:49;;;;;;;;;;;32.00;49.50;;;;;;4994848;28;19929;-72
2021/06/29 11:17:15;;;;;;;;;;;29.70;49.00;;;;;;4991717;28;20035;-74
2021/06/29 11:20:00;;;;;;;;;;;29.00;51.50;;;;;;4991980;28;19923;-71
2021/06/29 11:22:44;;;;;;;;;;;27.90;49.80;;;;;;4993162;28;20005;-72
2021/06/29 11:25:09;;;;;;;;;;;26.50;53.10;;;;;;4993326;28;19933;-72
2021/06/29 11:28:04;;;;;;;;;;;25.50;57.60;;;;;;4991676;28;19927;-73
2021/06/29 11:30:48;;;;;;;;;;;24.70;61.00;;;;;;4992404;28;20451;-72
2021/06/29 11:33:32;;;;;;;;;;;23.90;64.90;;;;;;4993533;28;19925;-72
2021/06/29 11:35:58;;;;;;;;;;;23.10;69.40;;;;;;4992950;28;19944;-72
2021/06/29 11:38:32;;;;;;;;;;;22.50;66.40;;;;;;4991692;28;20299;-73
2021/06/29 11:41:21;;;;;;;;;;;22.30;66.00;;;;;;4993451;28;19923;-73
2021/06/29 11:43:46;;;;;;;;;;;22.00;71.10;;;;;;4992323;28;19978;-71
2021/06/29 11:46:32;;;;;;;;;;;21.90;66.80;;;;;;4995045;28;19927;-72
2021/06/29 11:49:05;;;;;;;;;;;21.90;69.90;;;;;;5009749;28;19929;-71
2021/06/29 11:51:49;;;;;;;;;;;22.00;65.70;;;;;;5015321;28;19955;-72
2021/06/29 11:54:28;;;;;;;;;;;21.90;66.60;;;;;;5016243;28;19935;-72
2021/06/29 11:56:57;;;;;;;;;;;21.60;69.40;;;;;;5014626;28;19967;-71
2021/06/29 11:59:26;;;;;;;;;;;21.50;62.50;;;;;;5016178;28;19924;-72
2021/06/29 12:02:02;;;;;;;;;;;21.50;68.70;;;;;;5015060;28;20455;-71
2021/06/29 12:04:27;;;;;;;;;;;21.80;68.50;;;;;;5016073;28;19925;-72
2021/06/29 12:06:59;;;;;;;;;;;21.80;68.20;;;;;;5014592;28;20308;-73
2021/06/29 12:09:31;;;;;;;;;;;21.70;68.10;;;;;;5015953;28;19924;-71
2021/06/29 12:12:14;;;;;;;;;;;21.70;69.00;;;;;;5015954;28;19923;-71
2021/06/29 12:14:40;;;;;;;;;;;21.60;68.80;;;;;;5016064;28;19932;-72
2021/06/29 12:17:05;;;;;;;;;;;21.40;67.20;;;;;;5015916;28;19977;-73
2021/06/29 12:19:31;;;;;;;;;;;21.50;67.80;;;;;;5015573;28;20339;-73
2021/06/29 12:21:56;;;;;;;;;;;21.50;69.10;;;;;;5015794;28;19928;-72
2021/06/29 12:24:22;;;;;;;;;;;21.40;67.00;;;;;;5014661;28;19926;-72
2021/06/29 12:26:47;;;;;;;;;;;21.30;68.30;;;;;;5015549;28;20275;-72
2021/06/29 12:29:13;;;;;;;;;;;21.20;68.40;;;;;;5015537;28;19928;-72
2021/06/29 12:31:38;;;;;;;;;;;21.20;66.60;;;;;;5015466;28;19923;-73
2021/06/29 12:34:04;;;;;;;;;;;21.20;68.60;;;;;;4997944;28;20306;-71
2021/06/29 12:36:29;;;;;;;;;;;21.10;66.50;;;;;;5015366;28;19955;-72
2021/06/29 12:38:56;;;;;;;;;;;21.10;67.40;;;;;;5015355;28;20015;-74
2021/06/29 12:41:25;;;;;;;;;;;21.00;66.60;;;;;;5015530;28;19930;-70
2021/06/29 12:43:54;;;;;;;;;;;21.00;66.60;;;;;;5015160;28;19981;-71
2021/06/29 12:46:26;;;;;;;;;;;21.00;65.00;;;;;;5015319;28;19927;-73
2021/06/29 12:48:55;;;;;;;;;;;20.90;66.30;;;;;;5002195;28;19933;-72
2021/06/29 12:51:21;;;;;;;;;;;20.80;67.10;;;;;;4995671;28;19923;-72
2021/06/29 12:53:53;;;;;;;;;;;20.90;67.60;;;;;;4995433;28;19946;-73
2021/06/29 12:56:18;;;;;;;;;;;21.10;64.00;;;;;;4995254;28;20008;-71
2021/06/29 12:58:45;;;;;;;;;;;21.20;67.10;;;;;;4994523;28;20016;-71
2021/06/29 13:01:10;;;;;;;;;;;21.30;66.90;;;;;;4995442;28;19923;-72
2021/06/29 13:03:39;;;;;;;;;;;21.40;67.40;;;;;;4994047;28;19928;-72
2021/06/29 13:06:11;;;;;;;;;;;21.50;65.90;;;;;;4994258;28;19931;-72
2021/06/29 13:08:36;;;;;;;;;;;21.60;65.80;;;;;;4995213;28;20389;-73
2021/06/29 13:11:09;;;;;;;;;;;21.70;64.60;;;;;;4993958;28;19934;-72
2021/06/29 13:13:34;;;;;;;;;;;21.80;66.00;;;;;;4995231;28;19979;-72
2021/06/29 13:16:00;;;;;;;;;;;21.90;65.80;;;;;;4995294;28;19941;-73
2021/06/29 13:18:35;;;;;;;;;;;22.00;64.60;;;;;;4993600;28;19936;-72
2021/06/29 13:21:19;;;;;;;;;;;22.10;62.90;;;;;;4993874;28;19928;-70
2021/06/29 13:24:03;;;;;;;;;;;22.20;63.70;;;;;;4995072;28;19924;-72
2021/06/29 13:26:29;;;;;;;;;;;22.10;63.10;;;;;;4994988;28;19928;-72
2021/06/29 13:28:55;;;;;;;;;;;22.20;63.30;;;;;;4994819;28;20009;-74
2021/06/29 13:31:20;;;;;;;;;;;22.20;62.60;;;;;;4993550;28;19933;-72
2021/06/29 13:33:46;;;;;;;;;;;22.20;65.00;;;;;;4994824;28;20387;-72
2021/06/29 13:36:11;;;;;;;;;;;22.20;64.70;;;;;;4994738;28;20520;-73
2021/06/29 13:38:37;;;;;;;;;;;22.20;60.90;;;;;;4994457;28;19926;-71
2021/06/29 13:41:02;;;;;;;;;;;22.20;64.20;;;;;;4994853;28;20021;-71
2021/06/29 13:43:32;;;;;;;;;;;22.20;63.50;;;;;;4994500;28;19922;-72
2021/06/29 13:45:58;;;;;;;;;;;22.20;65.10;;;;;;4994872;28;19922;-72
2021/06/29 13:48:28;;;;;;;;;;;22.20;64.70;;;;;;5004781;28;19974;-71
2021/06/29 13:50:53;;;;;;;;;;;22.10;65.10;;;;;;5013328;28;19935;-70
2021/06/29 13:53:23;;;;;;;;;;;22.00;61.30;;;;;;5014036;28;20041;-72
2021/06/29 13:55:49;;;;;;;;;;;22.10;65.40;;;;;;5013460;28;19949;-73
2021/06/29 13:58:18;;;;;;;;;;;22.00;63.60;;;;;;5013901;28;20065;-72
2021/06/29 14:00:44;;;;;;;;;;;21.90;64.60;;;;;;5013896;28;19937;-70
2021/06/29 14:03:10;;;;;;;;;;;21.90;64.90;;;;;;5012785;28;19923;-71
2021/06/29 14:05:39;;;;;;;;;;;21.80;65.50;;;;;;5012909;28;19927;-72
2021/06/29 14:08:14;;;;;;;;;;;21.90;66.00;;;;;;5013330;28;19929;-71
2021/06/29 14:10:40;;;;;;;;;;;22.00;66.60;;;;;;5013781;28;19927;-72
2021/06/29 14:13:06;;;;;;;;;;;22.00;64.00;;;;;;5013727;28;20294;-72
2021/06/29 14:15:31;;;;;;;;;;;22.10;64.10;;;;;;5013820;28;19968;-72
2021/06/29 14:17:57;;;;;;;;;;;22.10;66.00;;;;;;5013200;28;20320;-74
2021/06/29 14:20:22;;;;;;;;;;;22.10;65.20;;;;;;5013591;28;19973;-73
2021/06/29 14:22:48;;;;;;;;;;;22.20;66.40;;;;;;5013529;28;19923;-72